Time;durP1;ratioP1;P1;durP2;ratioP2;P2;SDS_P1;SDS_P2;PMS_P1;PMS_P2;Temp;Humidity;BMP_temperature;BMP_pressure;BME280_temperature;BME280_humidity;BME280_pressure;Samples;Min_cycle;Max_cycle;Signal;HPM_P1;HPM_P2
2022/11/04 00:01:38;;;;;;;;;;;;;;;-144.99;87.63;52407.31;5056147;28;19951;-73
2022/11/04 00:04:05;;;;;;;;;;;;;;;-144.99;87.54;52427.72;5059148;28;20034;-73
2022/11/04 00:06:31;;;;;;;;;;;;;;;-144.99;88.30;52419.56;5067261;28;20014;-72
2022/11/04 00:08:58;;;;;;;;;;;;;;;-144.99;88.01;52415.47;5060692;28;19994;-73
2022/11/04 00:14:11;;;;;;;;;;;;;;;-144.99;88.22;52403.25;5080540;28;19954;-72
2022/11/04 00:19:22;;;;;;;;;;;;;;;-144.99;88.59;52409.38;5062536;28;19989;-73
2022/11/04 00:30:04;;;;;;;;;;;;;;;-144.99;91.00;52431.78;5098803;28;19990;-71
2022/11/04 00:35:15;;;;;;;;;;;;;;;-144.99;92.98;52399.19;5072116;28;19994;-73
2022/11/04 00:37:43;;;;;;;;;;;;;;;-144.99;94.85;52415.47;5070785;28;20034;-72
2022/11/04 00:40:10;;;;;;;;;;;;;;;-144.99;95.44;52423.63;5073042;28;19945;-73
2022/11/04 00:42:37;;;;;;;;;;;;;;;-144.99;96.27;52419.56;5072762;28;20043;-73
2022/11/04 00:45:05;;;;;;;;;;;;;;;-144.99;97.15;52397.13;5074845;28;20136;-71
2022/11/04 00:47:31;;;;;;;;;;;;;;;-144.99;98.01;52370.63;5078775;28;19958;-72
2022/11/04 00:49:58;;;;;;;;;;;;;;;-144.99;99.31;52391.03;5086953;28;20405;-74
2022/11/04 00:52:24;;;;;;;;;;;;;;;-144.99;99.43;52407.31;5086974;28;20045;-74
2022/11/04 00:54:51;;;;;;;;;;;;;;;-144.99;100.00;52399.19;5077885;28;19956;-72
2022/11/04 00:57:17;;;;;;;;;;;;;;;-144.99;100.00;52417.53;5076409;28;19999;-74
2022/11/04 00:59:44;;;;;;;;;;;;;;;-144.99;100.00;52413.44;5085270;28;19989;-73
2022/11/04 01:02:12;;;;;;;;;;;;;;;-144.99;100.00;52423.63;5075475;28;20168;-71
2022/11/04 01:04:39;;;;;;;;;;;;;;;-144.99;100.00;52419.56;5078283;28;19961;-74
2022/11/04 01:07:05;;;;;;;;;;;;;;;-144.99;100.00;52419.56;5081296;28;20343;-74
2022/11/04 01:09:32;;;;;;;;;;;;;;;-144.99;100.00;52395.09;5083331;28;19971;-74
2022/11/04 01:11:58;;;;;;;;;;;;;;;-144.99;100.00;52431.78;5080588;28;20358;-74
2022/11/04 01:14:25;;;;;;;;;;;;;;;-144.99;100.00;52391.03;5056184;28;19966;-73
2022/11/04 01:16:51;;;;;;;;;;;;;;;-144.99;100.00;52378.78;5088330;28;20419;-75
2022/11/04 01:19:19;;;;;;;;;;;;;;;-144.99;100.00;52407.31;5084896;28;19941;-73
2022/11/04 01:21:46;;;;;;;;;;;;;;;-144.99;100.00;52407.31;5091298;28;19929;-73
2022/11/04 01:24:12;;;;;;;;;;;;;;;-144.99;100.00;52427.72;5087575;28;19988;-75
2022/11/04 01:26:39;;;;;;;;;;;;;;;-144.99;100.00;52407.31;5082884;28;19971;-75
2022/11/04 01:29:05;;;;;;;;;;;;;;;-144.99;100.00;52401.22;5076062;28;19943;-73
2022/11/04 01:31:31;;;;;;;;;;;;;;;-144.99;100.00;52399.19;5093584;28;20017;-74
2022/11/04 01:33:58;;;;;;;;;;;;;;;-144.99;100.00;52413.44;5075839;28;19946;-73
2022/11/04 01:36:27;;;;;;;;;;;;;;;-144.99;100.00;52399.19;5085370;28;19995;-76
2022/11/04 01:38:54;;;;;;;;;;;;;;;-144.99;100.00;52374.72;5068570;28;19938;-74
2022/11/04 01:41:22;;;;;;;;;;;;;;;-144.99;100.00;52399.19;5094282;28;20009;-73
2022/11/04 01:43:50;;;;;;;;;;;;;;;-144.99;100.00;52431.78;5077757;28;20003;-74
2022/11/04 01:46:21;;;;;;;;;;;;;;;-144.99;100.00;52431.78;5085464;28;20014;-74
2022/11/04 01:48:48;;;;;;;;;;;;;;;-144.99;100.00;52395.09;5081914;28;20207;-73
2022/11/04 01:51:15;;;;;;;;;;;;;;;-144.99;100.00;52391.03;5079804;28;20366;-74
2022/11/04 01:53:44;;;;;;;;;;;;;;;-144.99;100.00;52403.25;5079045;28;20011;-74
2022/11/04 01:56:13;;;;;;;;;;;;;;;-144.99;100.00;52407.31;5074995;28;19966;-73
2022/11/04 01:58:40;;;;;;;;;;;;;;;-144.99;100.00;52399.19;5079014;28;19937;-71
2022/11/04 02:01:08;;;;;;;;;;;;;;;-144.99;100.00;52407.31;5081271;28;19951;-72
2022/11/04 02:03:36;;;;;;;;;;;;;;;-144.99;100.00;52399.19;5074018;28;19953;-73
2022/11/04 02:06:04;;;;;;;;;;;;;;;-144.99;100.00;52439.94;5074415;28;20064;-72
2022/11/04 02:08:31;;;;;;;;;;;;;;;-144.99;100.00;52397.13;5072572;28;19998;-72
2022/11/04 02:10:59;;;;;;;;;;;;;;;-144.99;100.00;52429.75;5083031;28;20025;-71
2022/11/04 02:13:25;;;;;;;;;;;;;;;-144.99;100.00;52374.72;5094863;28;19942;-74
2022/11/04 02:15:56;;;;;;;;;;;;;;;-144.99;100.00;52391.03;5074960;28;20345;-73
2022/11/04 02:18:37;;;;;;;;;;;;;;;-144.99;100.00;52382.88;5087792;28;20028;-74
2022/11/04 02:21:27;;;;;;;;;;;;;;;-144.99;100.00;52419.56;5100347;28;19995;-74
2022/11/04 02:24:04;;;;;;;;;;;;;;;-144.99;100.00;52382.88;5058977;28;20002;-74
2022/11/04 02:26:46;;;;;;;;;;;;;;;-144.99;100.00;52399.19;5078971;28;19941;-74
2022/11/04 02:29:19;;;;;;;;;;;;;;;-144.99;100.00;52446.06;5074518;28;19941;-75
2022/11/04 02:31:51;;;;;;;;;;;;;;;-144.99;100.00;52395.09;5080342;28;20049;-72
2022/11/04 02:34:20;;;;;;;;;;;;;;;-144.99;100.00;52386.94;5077473;28;19970;-71
2022/11/04 02:36:51;;;;;;;;;;;;;;;-144.99;100.00;52401.22;5080424;28;19945;-71
2022/11/04 02:39:23;;;;;;;;;;;;;;;-144.99;100.00;52415.47;5077943;28;19990;-70
2022/11/04 02:41:55;;;;;;;;;;;;;;;-144.99;100.00;52427.72;5082638;28;20030;-72
2022/11/04 02:44:27;;;;;;;;;;;;;;;-144.99;100.00;52427.72;5091510;28;19968;-74
2022/11/04 02:46:59;;;;;;;;;;;;;;;-144.99;100.00;52382.88;5087980;28;20089;-75
2022/11/04 02:49:27;;;;;;;;;;;;;;;-144.99;100.00;52411.41;5084485;28;19962;-73
2022/11/04 02:51:58;;;;;;;;;;;;;;;-144.99;100.00;52393.06;5097185;28;19943;-75
2022/11/04 02:54:26;;;;;;;;;;;;;;;-144.99;100.00;52411.41;5081160;28;20493;-74
2022/11/04 02:56:54;;;;;;;;;;;;;;;-144.99;100.00;52366.56;5091309;28;20009;-75
2022/11/04 02:59:24;;;;;;;;;;;;;;;-144.99;100.00;52403.25;5081584;28;20001;-75
2022/11/04 03:01:53;;;;;;;;;;;;;;;-144.99;100.00;52419.56;5086582;28;20030;-73
2022/11/04 03:04:21;;;;;;;;;;;;;;;-144.99;100.00;52419.56;5091705;28;19991;-74
2022/11/04 03:06:50;;;;;;;;;;;;;;;-144.99;100.00;52388.97;5085449;28;19944;-74
2022/11/04 03:09:18;;;;;;;;;;;;;;;-144.99;100.00;52384.91;5079967;28;20064;-74
2022/11/04 03:11:50;;;;;;;;;;;;;;;-144.99;100.00;52362.50;5077555;28;19978;-73
2022/11/04 03:14:18;;;;;;;;;;;;;;;-144.99;100.00;52409.38;5093757;28;19943;-74
2022/11/04 03:16:46;;;;;;;;;;;;;;;-144.99;100.00;52391.03;5092554;28;19991;-73
2022/11/04 03:19:16;;;;;;;;;;;;;;;-144.99;100.00;52382.88;5080861;28;19953;-72
2022/11/04 03:21:46;;;;;;;;;;;;;;;-144.99;100.00;52407.31;5078350;28;20030;-71
2022/11/04 03:24:13;;;;;;;;;;;;;;;-144.99;100.00;52370.63;5084955;28;20117;-73
2022/11/04 03:26:41;;;;;;;;;;;;;;;-144.99;100.00;52395.09;5081220;28;19989;-72
2022/11/04 03:29:15;;;;;;;;;;;;;;;-144.99;100.00;52411.41;5073999;28;19996;-73
2022/11/04 03:31:43;;;;;;;;;;;;;;;-144.99;100.00;52391.03;5081548;28;19987;-73
2022/11/04 03:34:10;;;;;;;;;;;;;;;-144.99;100.00;52368.59;5081045;28;20318;-72
2022/11/04 03:36:37;;;;;;;;;;;;;;;-144.99;100.00;52415.47;5075422;28;19940;-72
2022/11/04 03:39:04;;;;;;;;;;;;;;;-144.99;100.00;52370.63;5081664;28;19935;-73
2022/11/04 03:41:34;;;;;;;;;;;;;;;-144.99;100.00;52388.97;5073793;28;19982;-72
2022/11/04 03:44:00;;;;;;;;;;;;;;;-144.99;100.00;52368.59;5088146;28;20098;-73
2022/11/04 03:46:27;;;;;;;;;;;;;;;-144.99;100.00;52386.94;5065341;28;20057;-74
2022/11/04 03:48:54;;;;;;;;;;;;;;;-144.99;100.00;52362.50;5075952;28;19953;-75
2022/11/04 03:51:21;;;;;;;;;;;;;;;-144.99;100.00;52378.78;5082414;28;19979;-74
2022/11/04 03:53:48;;;;;;;;;;;;;;;-144.99;100.00;52386.94;5078296;28;20050;-73
2022/11/04 03:56:27;;;;;;;;;;;;;;;-144.99;100.00;52374.72;5086563;28;20504;-73
2022/11/04 03:59:03;;;;;;;;;;;;;;;-144.99;100.00;52415.47;5084706;28;19994;-74
2022/11/04 04:01:33;;;;;;;;;;;;;;;-144.99;100.00;52366.56;5082939;28;19948;-73
2022/11/04 04:04:05;;;;;;;;;;;;;;;-144.99;100.00;52399.19;5082789;28;19944;-74
2022/11/04 04:06:34;;;;;;;;;;;;;;;-144.99;100.00;52374.72;5091682;28;19971;-73
2022/11/04 04:09:05;;;;;;;;;;;;;;;-144.99;100.00;52399.19;5108252;28;20022;-73
2022/11/04 04:11:41;;;;;;;;;;;;;;;-144.99;100.00;52380.84;5115743;28;20006;-72
2022/11/04 04:14:37;;;;;;;;;;;;;;;-144.99;100.00;52382.88;5103299;28;19940;-74
2022/11/04 04:17:00;;;;;;;;;;;;;;;-144.99;100.00;52399.19;5096744;28;20024;-75
2022/11/04 04:19:27;;;;;;;;;;;;;;;-144.99;100.00;52370.63;5086309;28;20001;-77
2022/11/04 04:21:58;;;;;;;;;;;;;;;-144.99;100.00;52366.56;5089721;28;20411;-75
2022/11/04 04:29:45;;;;;;;;;;;;;;;-144.99;98.55;52399.19;5061792;28;20342;-80
2022/11/04 04:32:13;;;;;;;;;;;;;;;-144.99;97.83;52395.09;5068366;28;20435;-79
2022/11/04 04:34:39;;;;;;;;;;;;;;;-144.99;97.06;52399.19;5066692;28;20359;-76
2022/11/04 04:37:07;;;;;;;;;;;;;;;-144.99;97.20;52386.94;5064476;28;20465;-78
2022/11/04 04:45:08;;;;;;;;;;;;;;;-144.99;96.41;52407.31;5066982;28;19977;-78
2022/11/04 04:47:42;;;;;;;;;;;;;;;-144.99;94.56;52380.84;5073828;28;19936;-79
2022/11/04 04:50:09;;;;;;;;;;;;;;;-144.99;94.25;52399.19;5068712;28;19936;-76
2022/11/04 04:52:37;;;;;;;;;;;;;;;-144.99;93.43;52354.34;5068371;28;20345;-78
2022/11/04 04:55:06;;;;;;;;;;;;;;;-144.99;92.82;52378.78;5070408;28;20006;-79
2022/11/04 04:57:32;;;;;;;;;;;;;;;-144.99;91.86;52407.31;5070303;28;19935;-79
2022/11/04 04:59:58;;;;;;;;;;;;;;;-144.99;92.02;52409.38;5070393;28;19939;-78
2022/11/04 05:02:25;;;;;;;;;;;;;;;-144.99;91.68;52407.31;5069539;28;19967;-79
2022/11/04 05:04:51;;;;;;;;;;;;;;;-144.99;92.14;52437.91;5068347;28;19929;-80
2022/11/04 05:07:17;;;;;;;;;;;;;;;-144.99;92.51;52415.47;5066821;28;20329;-78
2022/11/04 05:09:44;;;;;;;;;;;;;;;-144.99;92.32;52350.25;5079163;28;19943;-79
2022/11/04 05:12:11;;;;;;;;;;;;;;;-144.99;91.66;52399.19;5067990;28;19939;-78
2022/11/04 05:14:38;;;;;;;;;;;;;;;-144.99;91.76;52391.03;5069856;28;19971;-79
2022/11/04 05:17:04;;;;;;;;;;;;;;;-144.99;91.44;52419.56;5070243;28;19952;-81
2022/11/04 05:19:31;;;;;;;;;;;;;;;-144.99;91.17;52403.25;5078890;28;19957;-83
2022/11/04 05:21:57;;;;;;;;;;;;;;;-144.99;90.80;52358.41;5068190;28;20366;-79
2022/11/04 05:24:24;;;;;;;;;;;;;;;-144.99;91.23;52427.72;5068719;28;19987;-80
2022/11/04 05:26:50;;;;;;;;;;;;;;;-144.99;90.79;52386.94;5070988;28;20292;-77
2022/11/04 05:29:18;;;;;;;;;;;;;;;-144.99;91.96;52419.56;5069964;28;19955;-80
2022/11/04 05:31:44;;;;;;;;;;;;;;;-144.99;91.00;52423.63;5070567;28;19939;-78
2022/11/04 05:34:11;;;;;;;;;;;;;;;-144.99;91.61;52409.38;5068372;28;20020;-80
2022/11/04 05:36:37;;;;;;;;;;;;;;;-144.99;91.90;52423.63;5079522;28;19940;-79
2022/11/04 05:39:04;;;;;;;;;;;;;;;-144.99;92.14;52456.25;5074078;28;20321;-80
2022/11/04 05:41:31;;;;;;;;;;;;;;;-144.99;91.90;52403.25;5079207;28;19954;-78
2022/11/04 05:43:58;;;;;;;;;;;;;;;-144.99;92.28;52399.19;5067132;28;19944;-77
2022/11/04 05:46:27;;;;;;;;;;;;;;;-144.99;92.34;52411.41;5068805;28;19951;-80
2022/11/04 05:48:53;;;;;;;;;;;;;;;-144.99;91.91;52407.31;5066949;28;20051;-80
2022/11/04 05:51:20;;;;;;;;;;;;;;;-144.99;93.52;52374.72;5072985;28;20295;-78
2022/11/04 05:53:47;;;;;;;;;;;;;;;-144.99;92.44;52415.47;5066952;28;20429;-78
2022/11/04 05:56:13;;;;;;;;;;;;;;;-144.99;92.89;52395.09;5077092;28;20002;-76
2022/11/04 05:58:40;;;;;;;;;;;;;;;-144.99;92.52;52415.47;5071880;28;19979;-77
2022/11/04 06:01:28;;;;;;;;;;;;;;;-144.99;92.50;52399.19;5066350;28;19952;-78
2022/11/04 06:03:54;;;;;;;;;;;;;;;-144.99;92.21;52413.44;5071665;28;19932;-76
2022/11/04 06:06:21;;;;;;;;;;;;;;;-144.99;92.87;52391.03;5066164;28;19958;-80
2022/11/04 06:08:49;;;;;;;;;;;;;;;-144.99;92.98;52391.03;5064884;28;19968;-79
2022/11/04 06:11:16;;;;;;;;;;;;;;;-144.99;92.29;52425.66;4359099;28;10000886;-79
2022/11/04 06:13:42;;;;;;;;;;;;;;;-144.99;93.19;52425.66;5071022;28;19934;-77
2022/11/04 06:16:08;;;;;;;;;;;;;;;-144.99;93.15;52399.19;5066163;28;19949;-80
2022/11/04 06:18:36;;;;;;;;;;;;;;;-144.99;93.21;52395.09;5064024;28;20015;-78
2022/11/04 06:21:10;;;;;;;;;;;;;;;-144.99;93.97;52393.06;5065072;28;19964;-78
2022/11/04 06:23:36;;;;;;;;;;;;;;;-144.99;94.67;52417.53;5059608;28;20292;-79
2022/11/04 06:26:03;;;;;;;;;;;;;;;-144.99;95.25;52425.66;5063897;28;19958;-76
2022/11/04 06:28:29;;;;;;;;;;;;;;;-144.99;94.93;52423.63;5080024;28;20073;-80
2022/11/04 06:30:56;;;;;;;;;;;;;;;-144.99;95.34;52419.56;5063752;28;20463;-79
2022/11/04 06:33:23;;;;;;;;;;;;;;;-144.99;95.06;52415.47;5062031;28;19951;-78
2022/11/04 06:35:50;;;;;;;;;;;;;;;-144.99;95.76;52407.31;5065014;28;19940;-80
2022/11/04 06:38:17;;;;;;;;;;;;;;;-144.99;96.30;52439.94;5077810;28;19960;-80
2022/11/04 06:40:43;;;;;;;;;;;;;;;-144.99;96.66;52421.59;5066185;28;19979;-81
2022/11/04 06:43:10;;;;;;;;;;;;;;;-144.99;96.78;52399.19;5064937;28;19958;-80
2022/11/04 06:45:36;;;;;;;;;;;;;;;-144.99;97.50;52399.19;5064716;28;20409;-78
2022/11/04 06:48:03;;;;;;;;;;;;;;;-144.99;96.89;52431.78;5071071;28;19956;-77
2022/11/04 06:50:29;;;;;;;;;;;;;;;-144.99;96.78;52417.53;5071532;28;20048;-80
2022/11/04 06:52:57;;;;;;;;;;;;;;;-144.99;97.82;52378.78;5064084;28;20304;-82
2022/11/04 06:55:24;;;;;;;;;;;;;;;-144.99;98.47;52419.56;5065569;28;19965;-80
2022/11/04 06:57:50;;;;;;;;;;;;;;;-144.99;98.56;52431.78;5055620;28;19936;-79
2022/11/04 07:00:17;;;;;;;;;;;;;;;-144.99;97.59;52439.94;5070443;28;20043;-79
2022/11/04 07:02:43;;;;;;;;;;;;;;;-144.99;97.47;52407.31;5074380;28;20237;-75
2022/11/04 07:05:11;;;;;;;;;;;;;;;-144.99;97.52;52403.25;5072264;28;19962;-80
2022/11/04 07:07:37;;;;;;;;;;;;;;;-144.99;97.82;52403.25;5069842;28;20006;-80
2022/11/04 07:10:05;;;;;;;;;;;;;;;-144.99;97.38;52419.56;5070393;28;19950;-77
2022/11/04 07:12:32;;;;;;;;;;;;;;;-144.99;97.27;52395.09;5063798;28;20342;-79
2022/11/04 07:14:58;;;;;;;;;;;;;;;-144.99;96.79;52407.31;5068357;28;20449;-79
2022/11/04 07:17:25;;;;;;;;;;;;;;;-144.99;95.90;52366.56;5066893;28;19946;-78
2022/11/04 07:19:51;;;;;;;;;;;;;;;-144.99;96.44;52431.78;5082161;28;20320;-79
2022/11/04 07:22:17;;;;;;;;;;;;;;;-144.99;96.49;52401.22;5076775;28;19954;-79
2022/11/04 07:24:44;;;;;;;;;;;;;;;-144.99;96.47;52441.97;5089786;28;19998;-77
2022/11/04 07:27:11;;;;;;;;;;;;;;;-144.99;96.91;52391.03;5071124;28;19968;-80
2022/11/04 07:29:38;;;;;;;;;;;;;;;-144.99;96.98;52407.31;5074244;28;19954;-76
2022/11/04 07:32:04;;;;;;;;;;;;;;;-144.99;96.89;52415.47;5069006;28;20324;-79
2022/11/04 07:34:31;;;;;;;;;;;;;;;-144.99;97.16;52417.53;5065465;28;19977;-78
2022/11/04 07:36:57;;;;;;;;;;;;;;;-144.99;96.72;52403.25;5061734;28;19925;-78
2022/11/04 07:39:24;;;;;;;;;;;;;;;-144.99;96.67;52380.84;5076968;28;20450;-78
2022/11/04 07:41:50;;;;;;;;;;;;;;;-144.99;97.00;52415.47;5069196;28;19993;-77
2022/11/04 07:44:18;;;;;;;;;;;;;;;-144.99;98.19;52388.97;5067896;28;19969;-80
2022/11/04 07:46:44;;;;;;;;;;;;;;;-144.99;98.35;52423.63;5070771;28;19924;-79
2022/11/04 07:49:10;;;;;;;;;;;;;;;-144.99;98.89;52395.09;5084404;28;20046;-80
2022/11/04 07:51:37;;;;;;;;;;;;;;;-144.99;98.80;52411.41;4715669;28;9999869;-78
2022/11/04 07:54:05;;;;;;;;;;;;;;;-144.99;98.51;52435.88;5063241;28;20171;-79
2022/11/04 07:56:31;;;;;;;;;;;;;;;-144.99;98.56;52431.78;5081952;28;19935;-80
2022/11/04 07:58:58;;;;;;;;;;;;;;;-144.99;97.63;52411.41;5079659;28;20679;-80
2022/11/04 08:01:25;;;;;;;;;;;;;;;-144.99;97.78;52427.72;5066867;28;19944;-79
2022/11/04 08:03:52;;;;;;;;;;;;;;;-144.99;97.10;52403.25;5064574;28;20391;-77
2022/11/04 08:06:20;;;;;;;;;;;;;;;-144.99;96.79;52413.44;5073110;28;20051;-80
2022/11/04 08:08:47;;;;;;;;;;;;;;;-144.99;96.43;52417.53;5069780;28;20065;-80
2022/11/04 08:11:14;;;;;;;;;;;;;;;-144.99;95.93;52374.72;5068480;28;20023;-82
2022/11/04 08:13:41;;;;;;;;;;;;;;;-144.99;95.04;52378.78;5072888;28;19994;-79
2022/11/04 08:16:09;;;;;;;;;;;;;;;-144.99;93.86;52407.31;5079988;28;20037;-81
2022/11/04 08:18:37;;;;;;;;;;;;;;;-144.99;93.20;52372.69;5076160;28;19960;-81
2022/11/04 08:21:04;;;;;;;;;;;;;;;-144.99;91.79;52354.34;5071213;28;19948;-83
2022/11/04 08:23:31;;;;;;;;;;;;;;;-144.99;91.32;52370.63;5078232;28;20462;-84
2022/11/04 08:25:58;;;;;;;;;;;;;;;-144.99;90.26;52386.94;5083827;28;19950;-82
2022/11/04 08:28:24;;;;;;;;;;;;;;;-144.99;89.38;52362.50;5092545;28;20013;-83
2022/11/04 08:30:52;;;;;;;;;;;;;;;-144.99;89.63;52419.56;5083277;28;19972;-78
2022/11/04 08:33:18;;;;;;;;;;;;;;;-144.99;90.15;52362.50;5088975;28;20014;-85
2022/11/04 08:35:46;;;;;;;;;;;;;;;-144.99;90.26;52427.72;5086644;28;19982;-84
2022/11/04 08:38:12;;;;;;;;;;;;;;;-144.99;90.70;52407.31;5082467;28;19977;-86
2022/11/04 08:40:39;;;;;;;;;;;;;;;-144.99;92.19;52399.19;5090246;28;19991;-84
2022/11/04 08:43:05;;;;;;;;;;;;;;;-144.99;91.78;52360.44;5086240;28;20185;-83
2022/11/04 08:45:31;;;;;;;;;;;;;;;-144.99;90.63;52427.72;5082381;28;20551;-81
2022/11/04 08:47:58;;;;;;;;;;;;;;;-144.99;89.78;52340.06;5069086;28;19994;-79
2022/11/04 08:50:26;;;;;;;;;;;;;;;-144.99;88.86;52407.31;5067350;28;19943;-78
2022/11/04 08:52:54;;;;;;;;;;;;;;;-144.99;88.43;52374.72;5067320;28;19938;-80
2022/11/04 08:55:20;;;;;;;;;;;;;;;-144.99;87.93;52382.88;5075758;28;20011;-77
2022/11/04 08:57:47;;;;;;;;;;;;;;;-144.99;87.84;52393.06;5076111;28;20213;-81
2022/11/04 09:00:15;;;;;;;;;;;;;;;-144.99;88.58;52378.78;5079152;28;19978;-77
2022/11/04 09:02:41;;;;;;;;;;;;;;;-144.99;88.72;52382.88;5068162;28;19938;-84
2022/11/04 09:05:08;;;;;;;;;;;;;;;-144.99;89.11;52407.31;5074413;28;19967;-81
2022/11/04 09:07:36;;;;;;;;;;;;;;;-144.99;89.43;52427.72;5078291;28;20079;-81
2022/11/04 09:10:04;;;;;;;;;;;;;;;-144.99;89.39;52415.47;5071728;28;19947;-76
2022/11/04 09:12:31;;;;;;;;;;;;;;;-144.99;89.08;52362.50;5077494;28;19953;-79
2022/11/04 09:14:57;;;;;;;;;;;;;;;-144.99;88.54;52384.91;5070267;28;19924;-77
2022/11/04 09:17:24;;;;;;;;;;;;;;;-144.99;88.28;52399.19;5067792;28;19935;-79
2022/11/04 09:19:50;;;;;;;;;;;;;;;-144.99;87.86;52409.38;5069131;28;20062;-80
2022/11/04 09:22:16;;;;;;;;;;;;;;;-144.99;87.01;52370.63;5066402;28;20110;-80
2022/11/04 09:24:43;;;;;;;;;;;;;;;-144.99;85.91;52382.88;5069707;28;19958;-80
2022/11/04 09:27:11;;;;;;;;;;;;;;;-144.99;85.06;52391.03;5071179;28;20063;-79
2022/11/04 09:29:37;;;;;;;;;;;;;;;-144.99;84.02;52346.19;5073695;28;20160;-78
2022/11/04 09:32:04;;;;;;;;;;;;;;;-144.99;82.22;52354.34;5072166;28;20354;-80
2022/11/04 09:34:31;;;;;;;;;;;;;;;-144.99;81.07;52374.72;5073674;28;19941;-80
2022/11/04 09:36:57;;;;;;;;;;;;;;;-144.99;80.19;52338.03;5073386;28;19943;-76
2022/11/04 09:39:25;;;;;;;;;;;;;;;-144.99;80.29;52386.94;5063594;28;19999;-78
2022/11/04 09:41:59;;;;;;;;;;;;;;;-144.99;79.55;52362.50;5066501;28;20364;-80
2022/11/04 09:44:28;;;;;;;;;;;;;;;-144.99;78.96;52366.56;5063284;28;20019;-80
2022/11/04 09:46:58;;;;;;;;;;;;;;;-144.99;77.28;52391.03;5068866;28;19957;-79
2022/11/04 09:49:26;;;;;;;;;;;;;;;-144.99;76.21;52358.41;5066928;28;20012;-81
2022/11/04 09:51:53;;;;;;;;;;;;;;;-144.99;76.77;52346.19;5062798;28;20046;-81
2022/11/04 09:54:22;;;;;;;;;;;;;;;-144.99;78.18;52356.38;5065343;28;19946;-80
2022/11/04 09:56:50;;;;;;;;;;;;;;;-144.99;76.52;52358.41;5069519;28;20431;-82
2022/11/04 09:59:20;;;;;;;;;;;;;;;-144.99;73.75;52309.50;5070019;28;19959;-81
2022/11/04 10:01:52;;;;;;;;;;;;;;;-144.99;71.00;52317.66;5063091;28;19960;-78
2022/11/04 10:04:25;;;;;;;;;;;;;;;-144.99;66.80;52305.41;5073514;28;20046;-81
2022/11/04 10:07:03;;;;;;;;;;;;;;;-144.99;62.97;52219.81;5070476;28;19973;-78
2022/11/04 10:09:35;;;;;;;;;;;;;;;-144.99;60.16;52225.94;5089073;28;20020;-81
2022/11/04 10:12:09;;;;;;;;;;;;;;;-144.99;58.21;52215.75;5076120;28;20050;-81
2022/11/04 10:14:40;;;;;;;;;;;;;;;-144.99;56.88;52126.06;5070497;28;20029;-82
2022/11/04 10:17:12;;;;;;;;;;;;;;;-144.99;52.71;52109.75;5074836;28;19939;-81
2022/11/04 10:19:44;;;;;;;;;;;;;;;-144.99;50.63;52077.16;5065931;28;20030;-78
2022/11/04 10:22:16;;;;;;;;;;;;;;;-144.99;49.42;52128.09;5063676;28;20266;-80
2022/11/04 10:24:47;;;;;;;;;;;;;;;-144.99;47.26;52195.34;5065503;28;19948;-81
2022/11/04 10:27:16;;;;;;;;;;;;;;;-144.99;46.54;52146.44;5072912;28;19962;-80
2022/11/04 10:29:44;;;;;;;;;;;;;;;-144.99;47.18;52232.03;5117308;22;19960;-75
2022/11/04 10:32:14;;;;;;;;;;;;;;;-144.99;47.53;52195.34;5096524;28;19942;-76
2022/11/04 10:34:43;;;;;;;;;;;;;;;-144.99;47.93;52117.91;5114501;27;19984;-73
2022/11/04 10:37:10;;;;;;;;;;;;;;;-144.99;47.53;52154.59;5114229;27;19964;-75
2022/11/04 10:39:41;;;;;;;;;;;;;;;-144.99;47.32;52248.34;5100973;27;19963;-75
2022/11/04 10:42:09;;;;;;;;;;;;;;;-144.99;46.79;52126.06;5094235;28;20478;-75
2022/11/04 10:44:37;;;;;;;;;;;;;;;-144.99;46.05;52162.75;5084825;28;19963;-73
2022/11/04 10:47:11;;;;;;;;;;;;;;;-144.99;45.50;52105.69;5084156;28;20050;-75
2022/11/04 10:49:56;;;;;;;;;;;;;;;-144.99;45.16;52056.78;5086269;28;19956;-75
2022/11/04 10:52:23;;;;;;;;;;;;;;;-144.99;44.96;52152.56;5077697;28;19955;-75
2022/11/04 10:54:50;;;;;;;;;;;;;;;-144.99;46.73;52195.34;5072427;28;20330;-74
2022/11/04 10:57:19;;;;;;;;;;;;;;;-144.99;46.44;52113.84;5093623;28;20384;-75
2022/11/04 10:59:51;;;;;;;;;;;;;;;-144.99;45.15;52183.13;5087028;28;19971;-74
2022/11/04 11:02:18;;;;;;;;;;;;;;;-144.99;45.56;52142.38;5085285;28;19967;-74
2022/11/04 11:04:46;;;;;;;;;;;;;;;-144.99;45.75;52105.69;5084930;28;19932;-75
2022/11/04 11:07:17;;;;;;;;;;;;;;;-144.99;45.71;52105.69;5086421;28;20311;-76
2022/11/04 11:09:50;;;;;;;;;;;;;;;-144.99;44.64;52134.22;5077723;28;19991;-75
2022/11/04 11:12:25;;;;;;;;;;;;;;;-144.99;43.33;52036.38;5076361;28;20017;-73
2022/11/04 11:14:52;;;;;;;;;;;;;;;-144.99;43.93;52193.31;5087566;28;20011;-77
2022/11/04 11:17:26;;;;;;;;;;;;;;;-144.99;45.03;52183.13;5095661;28;19999;-79
2022/11/04 11:19:56;;;;;;;;;;;;;;;-144.99;47.21;52276.88;5087590;28;19964;-75
2022/11/04 11:22:31;;;;;;;;;;;;;;;-144.99;49.57;52331.91;5085530;28;19947;-78
2022/11/04 11:27:56;;;;;;;;;;;;;;;-144.99;51.74;52354.34;5123213;27;19942;-70
2022/11/04 11:30:24;;;;;;;;;;;;;;;-144.99;54.07;52362.50;5099011;28;19968;-69
2022/11/04 11:32:54;;;;;;;;;;;;;;;-144.99;56.86;52358.41;5084626;28;20085;-70
2022/11/04 11:35:23;;;;;;;;;;;;;;;-144.99;59.08;52409.38;5085462;28;19944;-70
2022/11/04 11:37:49;;;;;;;;;;;;;;;-144.99;60.32;52366.56;5083609;28;19965;-70
2022/11/04 11:40:27;;;;;;;;;;;;;;;-144.99;60.66;52407.31;5084456;28;19969;-69
2022/11/04 11:42:55;;;;;;;;;;;;;;;-144.99;60.93;52411.41;5084269;28;19948;-70
2022/11/04 11:45:22;;;;;;;;;;;;;;;-144.99;59.60;52287.06;5082273;28;20397;-69
2022/11/04 11:47:53;;;;;;;;;;;;;;;-144.99;56.14;52354.34;5083138;28;19965;-70
2022/11/04 11:50:23;;;;;;;;;;;;;;;-144.99;56.51;52338.03;5083270;28;19991;-70
2022/11/04 11:52:51;;;;;;;;;;;;;;;-144.99;57.52;52183.13;5082816;28;20327;-71
2022/11/04 11:55:19;;;;;;;;;;;;;;;-144.99;53.71;52183.13;5069725;28;20323;-69
2022/11/04 11:57:49;;;;;;;;;;;;;;;-144.99;51.05;52244.28;5086907;28;20003;-69
2022/11/04 12:00:21;;;;;;;;;;;;;;;-144.99;49.47;52170.91;5083604;28;19964;-69
2022/11/04 12:02:53;;;;;;;;;;;;;;;-144.99;47.93;52121.97;5085992;28;19939;-70
2022/11/04 12:05:23;;;;;;;;;;;;;;;-144.99;46.53;52126.06;5082639;28;20446;-69
2022/11/04 12:07:54;;;;;;;;;;;;;;;-144.99;46.02;52134.22;5071320;28;20087;-70
2022/11/04 12:10:24;;;;;;;;;;;;;;;-144.99;45.75;52219.81;5082317;28;19959;-70
2022/11/04 12:12:56;;;;;;;;;;;;;;;-144.99;46.08;52097.53;5083238;28;19952;-70
2022/11/04 12:15:36;;;;;;;;;;;;;;;-144.99;45.81;52183.13;5090675;28;19977;-70
2022/11/04 12:18:14;;;;;;;;;;;;;;;-144.99;46.24;52150.53;5091823;28;19954;-70
2022/11/04 12:20:49;;;;;;;;;;;;;;;-144.99;47.12;52207.59;5086539;28;19924;-70
2022/11/04 12:23:20;;;;;;;;;;;;;;;-144.99;46.28;52115.88;5083425;28;20405;-70
2022/11/04 12:25:53;;;;;;;;;;;;;;;-144.99;45.83;52246.31;5088083;28;20494;-70
2022/11/04 12:28:27;;;;;;;;;;;;;;;-144.99;46.20;52280.97;5082377;28;19945;-70
2022/11/04 12:31:01;;;;;;;;;;;;;;;-144.99;46.93;52280.97;5083113;28;19981;-69
2022/11/04 12:33:32;;;;;;;;;;;;;;;-144.99;47.56;52240.19;5066152;28;20339;-70
2022/11/04 12:36:07;;;;;;;;;;;;;;;-144.99;48.59;52264.66;5083313;28;19944;-70
2022/11/04 12:38:43;;;;;;;;;;;;;;;-144.99;49.44;52221.84;5072308;28;20415;-69
2022/11/04 12:41:15;;;;;;;;;;;;;;;-144.99;50.18;52350.25;5069418;28;20073;-69
2022/11/04 12:43:47;;;;;;;;;;;;;;;-144.99;52.04;52370.63;5069633;28;19970;-70
2022/11/04 12:46:20;;;;;;;;;;;;;;;-144.99;54.56;52338.03;5069115;28;20252;-69
2022/11/04 12:48:53;;;;;;;;;;;;;;;-144.99;55.34;52325.81;5072748;28;19960;-71
2022/11/04 12:51:24;;;;;;;;;;;;;;;-144.99;54.25;52311.53;5069209;28;19955;-71
2022/11/04 12:53:59;;;;;;;;;;;;;;;-144.99;52.50;52248.34;5066467;28;20061;-69
2022/11/04 12:56:28;;;;;;;;;;;;;;;-144.99;50.93;52223.88;5069105;28;20333;-69
2022/11/04 12:59:07;;;;;;;;;;;;;;;-144.99;50.03;52179.06;5068501;28;20393;-69
2022/11/04 13:01:38;;;;;;;;;;;;;;;-144.99;48.04;52305.41;5068726;28;20432;-70